createdAt,value
2022-08-19T00:02:04.630Z,6.50
2022-08-19T00:04:35.780Z,4.68
2022-08-19T00:07:04.923Z,5.93
2022-08-19T00:09:32.416Z,3.85
2022-08-19T00:12:00.209Z,5.10
2022-08-19T00:14:30.635Z,5.20
2022-08-19T00:16:58.144Z,6.60
2022-08-19T00:19:25.610Z,3.72
2022-08-19T00:21:54.887Z,4.20
2022-08-19T00:24:22.333Z,6.10
2022-08-19T00:26:49.847Z,4.22
2022-08-19T00:29:18.643Z,6.00
2022-08-19T00:31:46.382Z,3.80
2022-08-19T00:34:14.554Z,3.30
2022-08-19T00:36:42.194Z,4.28
2022-08-19T00:39:09.653Z,2.60
2022-08-19T00:41:37.112Z,5.13
2022-08-19T00:44:20.997Z,6.65
2022-08-19T00:46:55.405Z,5.78
2022-08-19T00:49:38.799Z,5.47
2022-08-19T00:52:09.780Z,2.90
2022-08-19T00:54:37.924Z,2.40
2022-08-19T00:57:07.489Z,4.82
2022-08-19T01:00:01.128Z,3.40
2022-08-19T01:02:25.659Z,3.20
2022-08-19T01:04:53.109Z,5.03
2022-08-19T01:07:20.583Z,4.75
2022-08-19T01:09:48.068Z,3.80
2022-08-19T01:12:15.735Z,3.05
2022-08-19T01:14:43.143Z,3.90
2022-08-19T01:17:11.049Z,4.05
2022-08-19T01:19:43.635Z,4.47
2022-08-19T01:22:33.685Z,4.53
2022-08-19T01:25:01.983Z,4.78
2022-08-19T01:27:43.313Z,4.75
2022-08-19T01:30:15.427Z,4.32
2022-08-19T01:32:44.233Z,5.50
2022-08-19T01:35:12.521Z,6.85
2022-08-19T01:37:51.180Z,5.72
2022-08-19T01:40:20.345Z,5.10
2022-08-19T01:42:51.094Z,4.28
2022-08-19T01:45:19.151Z,5.88
2022-08-19T01:47:55.597Z,7.05
2022-08-19T01:50:34.006Z,3.25
2022-08-19T01:53:06.573Z,5.60
2022-08-19T01:55:40.677Z,5.07
2022-08-19T01:58:16.164Z,4.47
2022-08-19T02:00:43.820Z,3.40
2022-08-19T02:03:12.278Z,4.38
2022-08-19T02:05:40.699Z,4.50
2022-08-19T02:08:08.450Z,7.80
2022-08-19T02:10:42.153Z,6.07
2022-08-19T02:13:10.370Z,4.22
2022-08-19T02:15:38.663Z,5.70
2022-08-19T02:18:06.427Z,4.28
2022-08-19T02:20:33.915Z,4.30
2022-08-19T02:23:02.280Z,5.97
2022-08-19T02:25:29.837Z,4.70
2022-08-19T02:27:58.122Z,7.40
2022-08-19T02:30:25.921Z,5.07
2022-08-19T02:32:53.923Z,5.25
2022-08-19T02:35:21.622Z,4.55
2022-08-19T02:38:10.263Z,4.53
2022-08-19T02:40:37.768Z,7.93
2022-08-19T02:43:08.783Z,5.90
2022-08-19T02:45:36.954Z,4.60
2022-08-19T02:48:14.858Z,4.53
2022-08-19T02:50:56.554Z,5.90
2022-08-19T02:53:24.970Z,6.95
2022-08-19T02:55:52.606Z,6.30
2022-08-19T02:58:20.319Z,5.57
2022-08-19T03:00:50.235Z,8.25
2022-08-19T03:03:18.183Z,6.10
2022-08-19T03:05:49.239Z,7.80
2022-08-19T03:08:25.179Z,5.82
2022-08-19T03:10:54.046Z,4.00
2022-08-19T03:13:21.560Z,6.82
2022-08-19T03:15:49.173Z,8.07
2022-08-19T03:18:18.033Z,4.65
2022-08-19T03:20:48.144Z,5.70
2022-08-19T03:23:16.651Z,5.57
2022-08-19T03:26:03.193Z,4.05
2022-08-19T03:28:35.779Z,4.45
2022-08-19T03:31:43.664Z,6.28
2022-08-19T03:33:57.146Z,4.60
2022-08-19T03:36:25.917Z,5.32
2022-08-19T03:38:59.749Z,4.47
2022-08-19T03:41:34.192Z,4.78
2022-08-19T03:44:18.198Z,6.70
2022-08-19T03:46:56.160Z,6.78
2022-08-19T03:49:29.140Z,6.07
2022-08-19T03:51:57.943Z,5.43
2022-08-19T03:54:26.507Z,8.30
2022-08-19T03:56:54.795Z,7.45
2022-08-19T03:59:27.641Z,6.10
2022-08-19T04:01:59.378Z,5.15
2022-08-19T04:04:29.258Z,5.88
2022-08-19T04:06:58.507Z,6.63
2022-08-19T04:09:26.286Z,5.65
2022-08-19T04:11:56.902Z,5.55
2022-08-19T04:14:26.491Z,5.57
2022-08-19T04:16:54.333Z,4.63
2022-08-19T04:19:21.864Z,5.00
2022-08-19T04:21:51.391Z,6.13
2022-08-19T04:24:19.141Z,5.22
2022-08-19T04:26:46.957Z,5.10
2022-08-19T04:29:19.688Z,6.25
2022-08-19T04:31:47.226Z,6.47
2022-08-19T04:34:15.514Z,6.03
2022-08-19T04:36:43.433Z,4.45
2022-08-19T04:39:13.202Z,5.63
2022-08-19T04:41:59.497Z,4.10
2022-08-19T04:44:27.017Z,5.72
2022-08-19T04:46:54.439Z,4.55
2022-08-19T04:49:23.274Z,5.65
2022-08-19T04:51:52.291Z,6.20
2022-08-19T04:54:28.766Z,5.40
2022-08-19T04:57:08.393Z,4.60
2022-08-19T04:59:36.587Z,10.15
2022-08-19T05:02:04.447Z,6.40
2022-08-19T05:04:33.146Z,4.15
2022-08-19T05:07:01.883Z,8.52
2022-08-19T05:09:39.078Z,5.65
2022-08-19T05:12:18.262Z,6.72
2022-08-19T05:14:47.070Z,8.30
2022-08-19T05:17:34.906Z,6.85
2022-08-19T05:20:22.107Z,6.22
2022-08-19T05:22:49.563Z,5.88
2022-08-19T05:25:20.174Z,6.40
2022-08-19T05:27:47.918Z,6.90
2022-08-19T05:30:15.711Z,6.43
2022-08-19T05:32:43.165Z,5.97
2022-08-19T05:35:10.784Z,4.07
2022-08-19T05:37:41.344Z,5.93
2022-08-19T05:40:11.894Z,9.23
2022-08-19T05:42:41.258Z,4.75
2022-08-19T05:45:09.318Z,5.18
2022-08-19T05:47:42.133Z,7.07
2022-08-19T05:50:09.988Z,7.15
2022-08-19T05:52:39.087Z,4.88
2022-08-19T05:55:11.535Z,5.10
2022-08-19T05:57:39.286Z,5.63
2022-08-19T06:00:10.828Z,5.78
2022-08-19T06:02:39.313Z,6.30
2022-08-19T06:05:16.556Z,7.22
2022-08-19T06:07:43.969Z,3.75
2022-08-19T06:10:12.000Z,5.78
2022-08-19T06:12:39.479Z,6.18
2022-08-19T06:15:09.698Z,6.80
2022-08-19T06:17:37.247Z,5.05
2022-08-19T06:20:06.140Z,4.72
2022-08-19T06:22:38.783Z,6.28
2022-08-19T06:25:06.769Z,4.85
2022-08-19T06:27:34.752Z,5.35
2022-08-19T06:30:03.559Z,4.97
2022-08-19T06:32:31.229Z,2.70
2022-08-19T06:34:58.822Z,7.65
2022-08-19T06:37:26.313Z,4.80
2022-08-19T06:39:56.197Z,6.28
2022-08-19T06:42:23.979Z,4.32
2022-08-19T06:44:53.564Z,7.90
2022-08-19T06:47:23.522Z,5.25
2022-08-19T06:50:05.280Z,3.65
2022-08-19T06:52:34.943Z,5.93
2022-08-19T06:55:06.155Z,4.80
2022-08-19T06:57:34.463Z,4.60
2022-08-19T07:00:02.315Z,3.67
2022-08-19T07:02:30.456Z,5.00
2022-08-19T07:05:03.535Z,7.07
2022-08-19T07:07:34.439Z,7.00
2022-08-19T07:10:04.854Z,5.60
2022-08-19T07:12:35.766Z,3.88
2022-08-19T07:15:06.766Z,8.73
2022-08-19T07:17:35.765Z,4.25
2022-08-19T07:20:04.984Z,3.22
2022-08-19T07:22:35.214Z,5.10
2022-08-19T07:25:04.747Z,4.20
2022-08-19T07:27:33.481Z,5.15
2022-08-19T07:30:01.196Z,5.93
2022-08-19T07:32:28.894Z,5.78
2022-08-19T07:34:56.777Z,9.07
2022-08-19T07:37:32.396Z,9.68
2022-08-19T07:40:01.262Z,9.93
2022-08-19T07:42:30.670Z,9.30
2022-08-19T07:44:59.565Z,10.15
2022-08-19T07:47:48.074Z,8.48
2022-08-19T07:50:18.635Z,7.70
2022-08-19T07:52:48.984Z,7.13
2022-08-19T07:55:41.264Z,7.65
2022-08-19T07:58:06.051Z,7.10
2022-08-19T08:00:33.849Z,7.03
2022-08-19T08:03:01.321Z,7.32
2022-08-19T08:05:47.431Z,7.18
2022-08-19T08:08:44.209Z,6.78
2022-08-19T08:11:20.607Z,7.47
2022-08-19T08:14:01.007Z,5.78
2022-08-19T08:16:35.496Z,6.30
2022-08-19T08:19:16.411Z,4.65
2022-08-19T08:21:48.931Z,7.95
2022-08-19T08:24:16.911Z,6.93
2022-08-19T08:26:47.017Z,6.28
2022-08-19T08:29:20.591Z,5.35
2022-08-19T08:31:48.972Z,9.10
2022-08-19T08:34:27.199Z,7.13
2022-08-19T08:36:55.118Z,7.88
2022-08-19T08:39:22.774Z,5.30
2022-08-19T08:42:09.823Z,5.28
2022-08-19T08:47:26.358Z,5.82
2022-08-19T08:50:20.462Z,6.78
2022-08-19T08:52:49.754Z,7.10
2022-08-19T08:55:20.579Z,5.70
2022-08-19T08:57:55.850Z,5.85
2022-08-19T09:00:27.661Z,7.35
2022-08-19T09:02:55.920Z,7.22
2022-08-19T09:05:25.855Z,10.70
2022-08-19T09:08:14.797Z,8.50
2022-08-19T09:10:48.168Z,6.53
2022-08-19T09:13:25.799Z,6.25
2022-08-19T09:16:07.741Z,8.75
2022-08-19T09:18:54.125Z,4.32
2022-08-19T09:21:26.030Z,6.75
2022-08-19T09:24:00.763Z,6.93
2022-08-19T09:26:47.764Z,8.05
2022-08-19T09:29:22.520Z,7.30
2022-08-19T09:31:52.664Z,2.97
2022-08-19T09:34:22.189Z,6.57
2022-08-19T09:36:54.526Z,3.42
2022-08-19T09:39:22.407Z,4.25
2022-08-19T09:41:50.963Z,6.22
2022-08-19T09:44:19.137Z,6.05
2022-08-19T09:46:51.911Z,5.68
2022-08-19T09:49:20.803Z,5.68
2022-08-19T09:51:51.447Z,4.63
2022-08-19T09:54:24.925Z,6.68
2022-08-19T09:56:55.645Z,7.28
2022-08-19T09:59:23.190Z,6.97
2022-08-19T10:01:50.677Z,3.65
2022-08-19T10:04:20.410Z,4.78
2022-08-19T10:06:53.710Z,5.88
2022-08-19T10:09:34.042Z,4.30
2022-08-19T10:12:03.463Z,6.47
2022-08-19T10:14:31.607Z,4.00
2022-08-19T10:16:59.262Z,3.20
2022-08-19T10:19:28.395Z,7.60
2022-08-19T10:22:00.475Z,6.10
2022-08-19T10:24:29.053Z,3.42
2022-08-19T10:26:59.155Z,4.88
2022-08-19T10:29:32.148Z,6.03
2022-08-19T10:32:09.452Z,3.80
2022-08-19T10:34:48.076Z,4.82
2022-08-19T10:37:24.066Z,3.95
2022-08-19T10:39:58.868Z,3.40
2022-08-19T10:42:26.305Z,3.65
2022-08-19T10:44:56.534Z,4.35
2022-08-19T10:47:26.281Z,3.47
2022-08-19T10:50:18.829Z,3.03
2022-08-19T10:52:48.907Z,2.67
2022-08-19T10:55:35.398Z,3.10
2022-08-19T10:58:03.090Z,3.55
2022-08-19T11:00:31.981Z,2.55
2022-08-19T11:02:59.461Z,2.92
2022-08-19T11:05:29.632Z,3.50
2022-08-19T11:08:23.446Z,3.33
2022-08-19T11:10:54.701Z,2.83
2022-08-19T11:13:23.951Z,3.50
2022-08-19T11:16:24.359Z,3.55
2022-08-19T11:18:55.891Z,3.90
2022-08-19T11:21:34.762Z,3.95
2022-08-19T11:24:10.531Z,3.03
2022-08-19T11:26:38.526Z,3.70
2022-08-19T11:29:07.169Z,2.92
2022-08-19T11:31:36.426Z,4.72
2022-08-19T11:34:05.779Z,3.03
2022-08-19T11:36:33.593Z,3.75
2022-08-19T11:39:01.517Z,3.03
2022-08-19T11:41:29.030Z,2.78
2022-08-19T11:43:56.842Z,3.25
2022-08-19T11:46:25.204Z,3.40
2022-08-19T11:48:52.690Z,4.45
2022-08-19T11:51:22.740Z,2.28
2022-08-19T11:53:51.351Z,3.17
2022-08-19T11:56:19.616Z,3.22
2022-08-19T11:58:47.189Z,3.42
2022-08-19T12:01:18.519Z,1.70
2022-08-19T12:03:46.739Z,2.70
2022-08-19T12:06:19.790Z,2.47
2022-08-19T12:08:48.496Z,3.65
2022-08-19T12:11:16.037Z,3.05
2022-08-19T12:13:46.789Z,2.30
2022-08-19T12:16:17.534Z,2.33
2022-08-19T12:18:47.370Z,2.60
2022-08-19T12:21:15.851Z,3.30
2022-08-19T12:23:43.590Z,3.90
2022-08-19T12:26:11.230Z,3.97
2022-08-19T12:28:38.940Z,4.50
2022-08-19T12:31:06.681Z,1.92
2022-08-19T12:33:34.211Z,2.47
2022-08-19T12:36:03.262Z,2.65
2022-08-19T12:38:30.970Z,2.20
2022-08-19T12:41:00.281Z,1.95
2022-08-19T12:43:28.208Z,3.67
2022-08-19T12:45:55.662Z,3.28
2022-08-19T12:48:34.606Z,2.17
2022-08-19T12:51:07.748Z,1.60
2022-08-19T12:53:35.273Z,2.67
2022-08-19T12:56:12.394Z,4.65
2022-08-19T12:58:40.335Z,2.33
2022-08-19T13:01:13.102Z,2.38
2022-08-19T13:03:40.946Z,2.15
2022-08-19T13:06:08.852Z,2.78
2022-08-19T13:08:36.958Z,3.35
2022-08-19T13:11:12.771Z,4.15
2022-08-19T13:13:42.043Z,1.90
2022-08-19T13:16:11.765Z,2.88
2022-08-19T13:18:39.752Z,3.30
2022-08-19T13:21:08.438Z,3.40
2022-08-19T13:23:36.616Z,2.33
2022-08-19T13:26:08.385Z,4.18
2022-08-19T13:28:54.189Z,2.72
2022-08-19T13:31:43.995Z,1.80
2022-08-19T13:34:11.467Z,3.72
2022-08-19T13:36:39.030Z,1.98
2022-08-19T13:39:08.306Z,2.17
2022-08-19T13:41:37.062Z,2.25
2022-08-19T13:44:05.392Z,2.67
2022-08-19T13:46:32.878Z,1.80
2022-08-19T13:49:00.287Z,1.88
2022-08-19T13:51:27.833Z,3.00
2022-08-19T13:53:56.283Z,2.17
2022-08-19T13:56:26.279Z,2.97
2022-08-19T13:58:54.551Z,5.25
2022-08-19T14:01:23.704Z,3.28
2022-08-19T14:03:52.383Z,2.60
2022-08-19T14:06:20.559Z,2.30
2022-08-19T14:08:48.018Z,2.40
2022-08-19T14:11:15.655Z,1.70
2022-08-19T14:13:43.830Z,4.07
2022-08-19T14:16:15.469Z,3.65
2022-08-19T14:18:43.108Z,2.05
2022-08-19T14:21:16.023Z,1.88
2022-08-19T14:23:43.530Z,2.50
2022-08-19T14:26:13.044Z,1.80
2022-08-19T14:28:42.651Z,2.55
2022-08-19T14:31:11.576Z,2.53
2022-08-19T14:33:39.118Z,3.30
2022-08-19T14:36:06.783Z,3.08
2022-08-19T14:38:34.309Z,2.83
2022-08-19T14:41:09.038Z,1.63
2022-08-19T14:43:36.567Z,2.40
2022-08-19T14:46:04.094Z,3.13
2022-08-19T14:48:31.474Z,1.73
2022-08-19T14:50:59.143Z,2.63
2022-08-19T14:53:26.699Z,2.10
2022-08-19T14:55:54.127Z,2.83
2022-08-19T14:58:29.639Z,3.05
2022-08-19T15:01:00.659Z,2.55
2022-08-19T15:03:28.900Z,2.75
2022-08-19T15:05:58.314Z,2.72
2022-08-19T15:08:29.108Z,1.90
2022-08-19T15:10:59.615Z,1.65
2022-08-19T15:13:27.939Z,1.77
2022-08-19T15:15:55.499Z,2.92
2022-08-19T15:18:23.224Z,4.05
2022-08-19T15:20:50.696Z,2.22
2022-08-19T15:23:22.741Z,1.63
2022-08-19T15:25:54.350Z,2.80
2022-08-19T15:28:25.513Z,3.50
2022-08-19T15:30:53.131Z,1.88
2022-08-19T15:33:21.273Z,1.55
2022-08-19T15:35:49.928Z,2.03
2022-08-19T15:38:24.763Z,4.10
2022-08-19T15:41:14.725Z,2.83
2022-08-19T15:43:42.731Z,1.42
2022-08-19T15:46:10.167Z,2.20
2022-08-19T15:51:23.982Z,2.30
2022-08-19T15:53:51.462Z,1.73
2022-08-19T15:56:18.911Z,1.52
2022-08-19T15:59:04.752Z,2.30
2022-08-19T16:01:50.655Z,3.00
2022-08-19T16:04:37.013Z,2.42
2022-08-19T16:07:06.442Z,1.92
2022-08-19T16:09:36.311Z,2.47
2022-08-19T16:12:05.052Z,2.00
2022-08-19T16:14:34.062Z,2.15
2022-08-19T16:17:01.957Z,2.20
2022-08-19T16:19:29.458Z,2.13
2022-08-19T16:21:59.629Z,3.10
2022-08-19T16:24:27.610Z,2.60
2022-08-19T16:26:55.164Z,2.40
2022-08-19T16:29:34.040Z,2.95
2022-08-19T16:32:04.144Z,2.38
2022-08-19T16:34:31.890Z,1.98
2022-08-19T16:37:01.090Z,1.75
2022-08-19T16:39:28.532Z,1.75
2022-08-19T16:41:56.856Z,2.40
2022-08-19T16:44:24.335Z,2.45
2022-08-19T16:46:58.549Z,1.65
2022-08-19T16:49:54.540Z,2.15
2022-08-19T16:52:16.187Z,2.90
2022-08-19T16:54:44.019Z,2.75
2022-08-19T16:57:14.719Z,2.45
2022-08-19T16:59:48.425Z,2.33
2022-08-19T17:02:18.141Z,1.98
2022-08-19T17:04:55.708Z,1.83
2022-08-19T17:07:27.421Z,2.85
2022-08-19T17:09:55.391Z,1.85
2022-08-19T17:12:30.219Z,2.95
2022-08-19T17:15:00.947Z,2.28
2022-08-19T17:17:29.786Z,2.75
2022-08-19T17:19:59.182Z,1.60
2022-08-19T17:22:26.996Z,1.80
2022-08-19T17:24:56.457Z,2.10
2022-08-19T17:27:32.501Z,2.35
2022-08-19T17:30:02.489Z,1.58
2022-08-19T17:32:34.916Z,2.38
2022-08-19T17:35:04.090Z,1.90
2022-08-19T17:37:31.759Z,2.15
2022-08-19T17:39:59.284Z,1.60
2022-08-19T17:42:26.902Z,2.60
2022-08-19T17:44:59.215Z,4.22
2022-08-19T17:47:26.948Z,2.28
2022-08-19T17:49:54.375Z,2.58
2022-08-19T17:52:22.013Z,3.92
2022-08-19T17:54:49.447Z,3.38
2022-08-19T17:57:16.871Z,2.10
2022-08-19T17:59:44.297Z,1.92
2022-08-19T18:02:12.322Z,2.25
2022-08-19T18:04:39.914Z,3.42
2022-08-19T18:07:07.432Z,4.32
2022-08-19T18:09:42.586Z,3.97
2022-08-19T18:12:14.193Z,4.50
2022-08-19T18:14:41.836Z,2.40
2022-08-19T18:17:11.246Z,3.25
2022-08-19T18:19:40.750Z,2.15
2022-08-19T18:22:30.625Z,2.53
2022-08-19T18:24:58.351Z,3.60
2022-08-19T18:27:27.063Z,2.42
2022-08-19T18:29:59.236Z,4.07
2022-08-19T18:32:28.500Z,3.38
2022-08-19T18:34:56.241Z,2.75
2022-08-19T18:37:25.999Z,2.85
2022-08-19T18:40:12.332Z,2.25
2022-08-19T18:43:02.623Z,2.25
2022-08-19T18:45:49.105Z,2.78
2022-08-19T18:48:35.069Z,1.92
2022-08-19T18:51:02.706Z,2.15
2022-08-19T18:53:31.943Z,2.78
2022-08-19T18:55:59.868Z,3.50
2022-08-19T18:58:32.297Z,2.60
2022-08-19T19:01:11.439Z,3.55
2022-08-19T19:03:45.682Z,3.70
2022-08-19T19:06:16.109Z,3.42
2022-08-19T19:08:46.476Z,1.85
2022-08-19T19:11:14.440Z,2.65
2022-08-19T19:13:46.159Z,3.08
2022-08-19T19:16:13.646Z,3.85
2022-08-19T19:18:42.481Z,3.00
2022-08-19T19:21:10.371Z,2.35
2022-08-19T19:23:40.677Z,2.92
2022-08-19T19:26:10.549Z,4.95
2022-08-19T19:28:44.016Z,3.67
2022-08-19T19:31:19.408Z,2.22
2022-08-19T19:33:47.036Z,4.70
2022-08-19T19:36:17.313Z,4.45
2022-08-19T19:38:48.625Z,4.28
2022-08-19T19:41:18.339Z,5.97
2022-08-19T19:43:45.823Z,5.25
2022-08-19T19:46:13.898Z,5.18
2022-08-19T19:48:41.336Z,5.15
2022-08-19T19:51:09.210Z,3.97
2022-08-19T19:53:37.641Z,4.15
2022-08-19T19:56:05.348Z,3.53
2022-08-19T19:58:35.617Z,5.43
2022-08-19T20:01:09.597Z,4.43
2022-08-19T20:03:37.275Z,4.25
2022-08-19T20:06:04.836Z,4.55
2022-08-19T20:08:50.906Z,3.88
2022-08-19T20:11:31.213Z,2.78
2022-08-19T20:14:01.111Z,3.63
2022-08-19T20:16:30.152Z,2.42
2022-08-19T20:18:58.901Z,5.35
2022-08-19T20:21:32.176Z,3.03
2022-08-19T20:24:08.676Z,3.47
2022-08-19T20:26:37.667Z,3.33
2022-08-19T20:29:13.721Z,3.45
2022-08-19T20:31:59.109Z,1.95
2022-08-19T20:34:27.720Z,3.80
2022-08-19T20:36:55.699Z,2.35
2022-08-19T20:39:23.117Z,2.83
2022-08-19T20:41:50.615Z,4.40
2022-08-19T20:44:18.065Z,4.68
2022-08-19T20:46:54.579Z,3.75
2022-08-19T20:49:27.250Z,4.50
2022-08-19T20:51:56.044Z,5.75
2022-08-19T20:54:24.109Z,5.90
2022-08-19T20:56:51.881Z,4.55
2022-08-19T20:59:20.163Z,6.18
2022-08-19T21:01:48.321Z,3.33
2022-08-19T21:04:15.794Z,5.82
2022-08-19T21:06:45.556Z,2.95
2022-08-19T21:09:15.611Z,4.25
2022-08-19T21:11:44.077Z,3.92
2022-08-19T21:14:11.951Z,4.00
2022-08-19T21:16:39.386Z,3.92
2022-08-19T21:19:07.615Z,3.00
2022-08-19T21:21:35.099Z,4.13
2022-08-19T21:24:02.674Z,2.83
2022-08-19T21:26:30.159Z,4.70
2022-08-19T21:28:57.545Z,6.20
2022-08-19T21:31:24.999Z,1.65
2022-08-19T21:33:52.431Z,5.28
2022-08-19T21:36:19.906Z,3.92
2022-08-19T21:38:50.450Z,2.85
2022-08-19T21:41:17.842Z,4.40
2022-08-19T21:43:48.243Z,4.25
2022-08-19T21:46:16.401Z,3.25
2022-08-19T21:48:43.855Z,3.25
2022-08-19T21:51:11.290Z,3.05
2022-08-19T21:53:38.787Z,3.28
2022-08-19T21:56:06.940Z,5.82
2022-08-19T21:58:36.422Z,6.45
2022-08-19T22:01:06.222Z,4.03
2022-08-19T22:03:34.907Z,4.43
2022-08-19T22:06:02.798Z,4.13
2022-08-19T22:08:31.409Z,3.20
2022-08-19T22:11:01.634Z,3.60
2022-08-19T22:13:30.022Z,7.65
2022-08-19T22:15:57.437Z,3.83
2022-08-19T22:18:24.963Z,5.88
2022-08-19T22:20:52.435Z,3.65
2022-08-19T22:23:19.908Z,5.10
2022-08-19T22:25:47.363Z,6.40
2022-08-19T22:28:19.106Z,6.05
2022-08-19T22:30:55.956Z,2.35
2022-08-19T22:33:25.697Z,7.07
2022-08-19T22:35:53.399Z,4.18
2022-08-19T22:38:23.090Z,5.65
2022-08-19T22:40:51.146Z,5.53
2022-08-19T22:43:24.056Z,2.67
2022-08-19T22:45:52.762Z,6.68
2022-08-19T22:48:21.535Z,3.97
2022-08-19T22:51:08.435Z,5.15
2022-08-19T22:53:38.066Z,2.95
2022-08-19T22:56:06.608Z,4.47
2022-08-19T22:58:36.840Z,4.25
2022-08-19T23:01:04.580Z,5.10
2022-08-19T23:03:33.323Z,2.55
2022-08-19T23:06:00.895Z,3.35
2022-08-19T23:08:28.701Z,5.78
2022-08-19T23:10:56.601Z,5.80
2022-08-19T23:13:24.757Z,2.70
2022-08-19T23:15:52.232Z,3.88
2022-08-19T23:18:20.727Z,8.40
2022-08-19T23:20:48.255Z,4.22
2022-08-19T23:23:19.088Z,4.30
2022-08-19T23:25:47.221Z,5.03
2022-08-19T23:28:33.245Z,5.78
2022-08-19T23:31:01.945Z,5.35
2022-08-19T23:33:50.821Z,2.00
2022-08-19T23:36:19.714Z,4.35
2022-08-19T23:38:48.062Z,4.60
2022-08-19T23:41:19.913Z,4.20
2022-08-19T23:43:47.531Z,3.05
2022-08-19T23:46:27.546Z,4.30
2022-08-19T23:48:56.901Z,2.58
2022-08-19T23:51:26.475Z,3.58
2022-08-19T23:53:53.939Z,5.47
2022-08-19T23:56:21.555Z,4.32
2022-08-19T23:58:49.253Z,2.42
